createdAt,value
2023-03-22T00:00:55.835Z,32.03
2023-03-22T00:03:23.326Z,37.90
2023-03-22T00:05:50.457Z,37.47
2023-03-22T00:08:17.216Z,33.95
2023-03-22T00:10:43.931Z,32.35
2023-03-22T00:13:11.653Z,33.80
2023-03-22T00:15:38.265Z,31.15
2023-03-22T00:18:05.902Z,34.47
2023-03-22T00:20:37.617Z,38.35
2023-03-22T00:23:04.445Z,35.42
2023-03-22T00:25:31.281Z,34.67
2023-03-22T00:27:57.939Z,32.25
2023-03-22T00:30:24.631Z,36.08
2023-03-22T00:32:51.249Z,32.00
2023-03-22T00:35:18.028Z,34.45
2023-03-22T00:37:44.729Z,32.53
2023-03-22T00:40:13.162Z,30.85
2023-03-22T00:42:40.980Z,34.72
2023-03-22T00:45:10.470Z,30.67
2023-03-22T00:47:37.822Z,32.42
2023-03-22T00:50:06.436Z,31.52
2023-03-22T00:52:33.289Z,29.95
2023-03-22T00:55:00.026Z,30.98
2023-03-22T00:57:26.711Z,32.08
2023-03-22T00:59:54.030Z,33.63
2023-03-22T01:02:20.712Z,33.13
2023-03-22T01:04:48.273Z,33.75
2023-03-22T01:07:18.087Z,34.65
2023-03-22T01:09:45.608Z,32.70
2023-03-22T01:12:12.688Z,32.53
2023-03-22T01:14:39.994Z,33.58
2023-03-22T01:17:07.364Z,33.58
2023-03-22T01:19:35.401Z,34.63
2023-03-22T01:22:03.244Z,34.45
2023-03-22T01:24:29.935Z,33.85
2023-03-22T01:26:57.146Z,35.22
2023-03-22T01:29:25.064Z,33.72
2023-03-22T01:31:52.207Z,33.83
2023-03-22T01:34:18.841Z,34.63
2023-03-22T01:36:45.593Z,33.78
2023-03-22T01:39:12.228Z,34.08
2023-03-22T01:41:38.969Z,33.88
2023-03-22T01:44:18.584Z,34.08
2023-03-22T01:46:47.023Z,30.63
2023-03-22T01:49:23.359Z,36.80
2023-03-22T01:51:52.068Z,32.22
2023-03-22T01:54:32.568Z,35.10
2023-03-22T01:56:59.582Z,37.53
2023-03-22T01:59:27.242Z,34.83
2023-03-22T02:01:54.415Z,30.10
2023-03-22T02:04:34.122Z,37.78
2023-03-22T02:07:15.634Z,31.33
2023-03-22T02:09:42.965Z,31.92
2023-03-22T02:12:36.741Z,37.95
2023-03-22T02:15:47.126Z,33.78
2023-03-22T02:18:45.996Z,33.22
2023-03-22T02:21:15.172Z,35.22
2023-03-22T02:23:59.713Z,27.88
2023-03-22T02:26:29.244Z,32.35
2023-03-22T02:29:12.766Z,29.65
2023-03-22T02:31:57.937Z,33.13
2023-03-22T02:34:58.307Z,30.52
2023-03-22T02:37:49.473Z,32.58
2023-03-22T02:40:34.761Z,33.67
2023-03-22T02:43:42.307Z,27.17
2023-03-22T02:46:20.388Z,33.70
2023-03-22T02:48:59.940Z,31.85
2023-03-22T02:51:37.514Z,33.30
2023-03-22T02:54:09.498Z,34.60
2023-03-22T02:56:44.422Z,33.50
2023-03-22T02:59:12.382Z,33.88
2023-03-22T03:01:46.473Z,34.38
2023-03-22T03:04:17.793Z,31.33
2023-03-22T03:06:46.352Z,27.38
2023-03-22T03:09:18.320Z,27.10
2023-03-22T03:11:50.988Z,29.42
2023-03-22T03:14:28.304Z,30.00
2023-03-22T03:17:06.484Z,24.90
2023-03-22T03:19:52.628Z,27.17
2023-03-22T03:22:22.203Z,29.38
2023-03-22T03:24:56.444Z,28.35
2023-03-22T03:27:41.281Z,23.75
2023-03-22T03:30:10.468Z,28.45
2023-03-22T03:32:56.026Z,37.88
2023-03-22T03:35:27.389Z,32.60
2023-03-22T03:37:57.792Z,23.65
2023-03-22T03:40:29.022Z,30.58
2023-03-22T03:42:56.675Z,27.15
2023-03-22T03:45:23.638Z,29.80
2023-03-22T03:47:57.145Z,29.17
2023-03-22T03:50:25.666Z,28.80
2023-03-22T03:52:53.916Z,28.55
2023-03-22T03:55:22.132Z,29.33
2023-03-22T03:57:48.834Z,37.55
2023-03-22T04:00:16.264Z,29.08
2023-03-22T04:02:43.714Z,27.80
2023-03-22T04:05:11.744Z,30.33
2023-03-22T04:07:38.833Z,29.55
2023-03-22T04:10:06.325Z,26.27
2023-03-22T04:12:33.142Z,30.25
2023-03-22T04:14:59.981Z,29.48
2023-03-22T04:17:29.280Z,25.85
2023-03-22T04:19:59.296Z,27.15
2023-03-22T04:22:27.902Z,28.42
2023-03-22T04:24:54.501Z,28.50
2023-03-22T04:27:22.469Z,26.95
2023-03-22T04:29:51.197Z,27.20
2023-03-22T04:32:26.368Z,26.08
2023-03-22T04:34:53.405Z,25.23
2023-03-22T04:37:22.694Z,25.73
2023-03-22T04:39:49.417Z,25.50
2023-03-22T04:42:16.110Z,23.20
2023-03-22T04:44:42.764Z,27.52
2023-03-22T04:47:09.485Z,23.95
2023-03-22T04:49:36.170Z,24.13
2023-03-22T04:52:03.094Z,25.77
2023-03-22T04:54:29.781Z,22.75
2023-03-22T04:56:56.410Z,24.00
2023-03-22T04:59:23.061Z,26.42
2023-03-22T05:01:51.501Z,29.98
2023-03-22T05:04:19.114Z,23.52
2023-03-22T05:06:46.630Z,25.83
2023-03-22T05:09:13.680Z,27.42
2023-03-22T05:11:40.848Z,22.08
2023-03-22T05:14:08.981Z,22.90
2023-03-22T05:16:36.229Z,27.33
2023-03-22T05:19:03.118Z,27.45
2023-03-22T05:21:37.029Z,23.85
2023-03-22T05:24:04.073Z,26.05
2023-03-22T05:26:30.959Z,26.50
2023-03-22T05:28:57.790Z,25.40
2023-03-22T05:31:24.578Z,26.33
2023-03-22T05:33:52.299Z,25.27
2023-03-22T05:36:20.906Z,24.02
2023-03-22T05:38:47.834Z,27.50
2023-03-22T05:41:14.837Z,23.83
2023-03-22T05:43:41.798Z,28.42
2023-03-22T05:46:09.975Z,27.63
2023-03-22T05:48:37.698Z,22.75
2023-03-22T05:51:09.053Z,20.77
2023-03-22T05:53:35.831Z,27.20
2023-03-22T05:56:02.430Z,26.27
2023-03-22T05:58:32.239Z,23.77
2023-03-22T06:01:10.470Z,22.00
2023-03-22T06:03:38.311Z,22.38
2023-03-22T06:06:07.043Z,26.75
2023-03-22T06:08:34.228Z,23.73
2023-03-22T06:11:01.108Z,20.58
2023-03-22T06:13:27.766Z,25.63
2023-03-22T06:15:54.575Z,22.38
2023-03-22T06:18:21.197Z,25.67
2023-03-22T06:20:47.830Z,21.02
2023-03-22T06:23:14.505Z,22.92
2023-03-22T06:25:41.153Z,21.30
2023-03-22T06:28:08.849Z,22.25
2023-03-22T06:30:35.695Z,22.27
2023-03-22T06:33:05.232Z,23.95
2023-03-22T06:35:33.066Z,26.48
2023-03-22T06:38:00.565Z,26.10
2023-03-22T06:40:27.547Z,27.50
2023-03-22T06:42:57.024Z,25.75
2023-03-22T06:45:23.831Z,27.92
2023-03-22T06:47:50.816Z,25.38
2023-03-22T06:50:17.508Z,23.60
2023-03-22T06:52:44.127Z,27.15
2023-03-22T06:55:10.829Z,23.13
2023-03-22T06:57:37.472Z,20.23
2023-03-22T07:00:05.404Z,20.60
2023-03-22T07:02:32.172Z,24.85
2023-03-22T07:04:58.889Z,23.23
2023-03-22T07:07:25.632Z,21.52
2023-03-22T07:09:57.136Z,19.75
2023-03-22T07:12:23.700Z,25.85
2023-03-22T07:14:50.505Z,23.38
2023-03-22T07:17:17.172Z,21.23
2023-03-22T07:19:45.017Z,20.33
2023-03-22T07:22:11.626Z,23.63
2023-03-22T07:24:47.204Z,21.60
2023-03-22T07:27:18.236Z,19.88
2023-03-22T07:29:45.078Z,20.10
2023-03-22T07:32:11.797Z,23.00
2023-03-22T07:34:38.583Z,21.38
2023-03-22T07:37:05.338Z,21.77
2023-03-22T07:39:32.079Z,18.30
2023-03-22T07:41:58.733Z,20.35
2023-03-22T07:44:25.804Z,19.80
2023-03-22T07:46:52.653Z,21.08
2023-03-22T07:49:19.451Z,20.90
2023-03-22T07:51:46.259Z,17.90
2023-03-22T07:54:20.192Z,22.58
2023-03-22T07:56:57.646Z,18.67
2023-03-22T07:59:25.106Z,20.65
2023-03-22T08:01:51.813Z,18.92
2023-03-22T08:04:19.874Z,23.08
2023-03-22T08:06:46.761Z,24.40
2023-03-22T08:09:13.332Z,20.60
2023-03-22T08:11:39.944Z,21.90
2023-03-22T08:14:06.622Z,24.80
2023-03-22T08:16:33.495Z,21.63
2023-03-22T08:19:00.531Z,24.83
2023-03-22T08:21:27.504Z,21.55
2023-03-22T08:23:54.430Z,20.00
2023-03-22T08:26:22.431Z,23.27
2023-03-22T08:28:49.080Z,24.20
2023-03-22T08:31:17.241Z,23.17
2023-03-22T08:33:44.633Z,22.42
2023-03-22T08:36:14.141Z,23.25
2023-03-22T08:38:42.599Z,22.45
2023-03-22T08:41:09.551Z,24.98
2023-03-22T08:43:36.256Z,22.67
2023-03-22T08:46:03.039Z,23.40
2023-03-22T08:48:30.830Z,19.95
2023-03-22T08:50:58.244Z,17.27
2023-03-22T08:53:25.117Z,16.30
2023-03-22T08:55:51.785Z,15.98
2023-03-22T08:58:20.129Z,17.40
2023-03-22T09:00:49.376Z,17.17
2023-03-22T09:03:17.006Z,17.70
2023-03-22T09:05:45.093Z,12.18
2023-03-22T09:08:18.569Z,13.00
2023-03-22T09:10:51.690Z,14.27
2023-03-22T09:13:18.999Z,17.80
2023-03-22T09:15:45.879Z,17.23
2023-03-22T09:18:13.023Z,18.45
2023-03-22T09:20:40.191Z,14.07
2023-03-22T09:23:07.139Z,11.45
2023-03-22T09:25:33.855Z,14.82
2023-03-22T09:28:00.606Z,13.40
2023-03-22T09:30:27.758Z,11.60
2023-03-22T09:32:54.810Z,12.20
2023-03-22T09:35:22.053Z,13.35
2023-03-22T09:37:49.570Z,13.48
2023-03-22T09:40:17.823Z,16.55
2023-03-22T09:42:46.999Z,15.70
2023-03-22T09:45:21.508Z,16.45
2023-03-22T09:47:51.242Z,13.50
2023-03-22T09:50:27.061Z,10.70
2023-03-22T09:52:54.168Z,12.18
2023-03-22T09:55:58.446Z,11.95
2023-03-22T09:58:51.060Z,13.68
2023-03-22T10:01:35.479Z,13.00
2023-03-22T10:04:06.431Z,10.25
2023-03-22T10:06:33.273Z,13.13
2023-03-22T10:09:14.968Z,12.20
2023-03-22T10:12:05.204Z,11.70
2023-03-22T10:14:43.614Z,12.93
2023-03-22T10:17:13.513Z,12.50
2023-03-22T10:19:58.828Z,15.20
2023-03-22T10:22:30.550Z,14.60
2023-03-22T10:24:57.706Z,15.13
2023-03-22T10:27:27.006Z,14.93
2023-03-22T10:30:04.210Z,12.75
2023-03-22T10:33:13.640Z,14.35
2023-03-22T10:35:42.052Z,10.45
2023-03-22T10:38:18.953Z,11.48
2023-03-22T10:40:46.481Z,11.50
2023-03-22T10:43:20.413Z,14.23
2023-03-22T10:45:47.226Z,14.32
2023-03-22T10:48:35.550Z,12.25
2023-03-22T10:51:02.447Z,12.40
2023-03-22T10:53:41.591Z,12.00
2023-03-22T10:56:14.539Z,9.15
2023-03-22T10:58:41.399Z,8.75
2023-03-22T11:01:13.676Z,10.77
2023-03-22T11:03:43.489Z,10.05
2023-03-22T11:06:15.956Z,11.63
2023-03-22T11:08:46.855Z,11.25
2023-03-22T11:11:25.715Z,10.68
2023-03-22T11:14:30.771Z,12.90
2023-03-22T11:17:06.434Z,11.77
2023-03-22T11:19:37.134Z,13.13
2023-03-22T11:22:34.779Z,10.85
2023-03-22T11:25:02.270Z,13.00
2023-03-22T11:27:33.057Z,10.63
2023-03-22T11:30:08.758Z,12.13
2023-03-22T11:32:37.753Z,11.23
2023-03-22T11:35:22.337Z,12.55
2023-03-22T11:37:52.008Z,10.02
2023-03-22T11:40:25.191Z,10.05
2023-03-22T11:42:57.034Z,8.35
2023-03-22T11:45:31.863Z,10.10
2023-03-22T11:48:13.845Z,11.57
2023-03-22T11:50:42.286Z,9.85
2023-03-22T11:53:14.828Z,10.95
2023-03-22T11:55:42.133Z,9.20
2023-03-22T11:58:24.651Z,12.00
2023-03-22T12:00:52.604Z,11.02
2023-03-22T12:03:23.857Z,9.65
2023-03-22T12:05:52.510Z,8.10
2023-03-22T12:08:42.881Z,7.85
2023-03-22T12:11:18.104Z,9.82
2023-03-22T12:16:46.828Z,9.27
2023-03-22T12:19:20.272Z,8.98
2023-03-22T12:21:49.610Z,8.98
2023-03-22T12:24:32.944Z,12.15
2023-03-22T12:27:21.673Z,11.10
2023-03-22T12:30:07.397Z,9.18
2023-03-22T12:32:42.041Z,10.23
2023-03-22T12:35:23.933Z,10.82
2023-03-22T12:37:53.388Z,13.45
2023-03-22T12:40:27.679Z,11.20
2023-03-22T12:43:15.850Z,8.00
2023-03-22T12:45:49.312Z,10.38
2023-03-22T12:48:40.877Z,12.23
2023-03-22T12:51:09.752Z,8.13
2023-03-22T12:53:48.667Z,8.20
2023-03-22T12:56:18.488Z,12.05
2023-03-22T12:58:51.919Z,9.50
2023-03-22T13:01:28.857Z,10.25
2023-03-22T13:03:57.747Z,11.05
2023-03-22T13:06:33.235Z,7.50
2023-03-22T13:09:19.383Z,9.30
2023-03-22T13:12:17.782Z,12.00
2023-03-22T13:14:54.145Z,7.65
2023-03-22T13:17:23.556Z,8.95
2023-03-22T13:19:55.906Z,10.60
2023-03-22T13:22:30.817Z,8.95
2023-03-22T13:25:12.630Z,10.27
2023-03-22T13:27:54.022Z,10.82
2023-03-22T13:30:21.774Z,10.57
2023-03-22T13:32:56.608Z,9.35
2023-03-22T13:35:28.322Z,8.90
2023-03-22T13:38:02.685Z,10.27
2023-03-22T13:40:46.306Z,10.50
2023-03-22T13:43:31.790Z,8.35
2023-03-22T13:46:07.106Z,9.18
2023-03-22T13:48:52.533Z,8.27
2023-03-22T13:54:14.040Z,7.60
2023-03-22T13:57:01.502Z,10.45
2023-03-22T13:59:29.736Z,9.05
2023-03-22T14:02:16.032Z,8.23
2023-03-22T14:05:08.100Z,11.55
2023-03-22T14:08:04.341Z,10.43
2023-03-22T14:10:51.473Z,11.23
2023-03-22T14:13:39.788Z,10.15
2023-03-22T14:16:11.845Z,9.52
2023-03-22T14:18:43.371Z,9.27
2023-03-22T14:21:15.990Z,9.45
